sensor_id;sensor_type;location;lat;lon;timestamp;pressure;altitude;pressure_sealevel;temperature;humidity
78613;BME280;67933;51.060;3.638;2024-01-10T00:01:18;103033.03;;;-4.32;72.91
78613;BME280;67933;51.060;3.638;2024-01-10T00:03:44;103035.53;;;-4.35;72.17
78613;BME280;67933;51.060;3.638;2024-01-10T00:06:12;103029.47;;;-4.36;71.81
78613;BME280;67933;51.060;3.638;2024-01-10T00:08:37;103026.16;;;-4.32;71.30
78613;BME280;67933;51.060;3.638;2024-01-10T00:11:03;103021.69;;;-4.36;71.59
78613;BME280;67933;51.060;3.638;2024-01-10T00:13:30;103019.19;;;-4.33;71.02
78613;BME280;67933;51.060;3.638;2024-01-10T00:15:56;103017.41;;;-4.35;71.86
78613;BME280;67933;51.060;3.638;2024-01-10T00:18:24;103017.34;;;-4.37;71.97
78613;BME280;67933;51.060;3.638;2024-01-10T00:20:49;103021.50;;;-4.40;71.64
78613;BME280;67933;51.060;3.638;2024-01-10T00:23:15;103015.34;;;-4.44;72.30
78613;BME280;67933;51.060;3.638;2024-01-10T00:25:41;103005.19;;;-4.38;71.09
78613;BME280;67933;51.060;3.638;2024-01-10T00:28:06;103005.13;;;-4.39;71.63
78613;BME280;67933;51.060;3.638;2024-01-10T00:30:31;103002.47;;;-4.41;72.57
78613;BME280;67933;51.060;3.638;2024-01-10T00:32:57;102999.06;;;-4.40;72.56
78613;BME280;67933;51.060;3.638;2024-01-10T00:35:22;102993.59;;;-4.47;71.31
78613;BME280;67933;51.060;3.638;2024-01-10T00:37:47;103002.16;;;-4.50;72.77
78613;BME280;67933;51.060;3.638;2024-01-10T00:40:13;102997.66;;;-4.54;72.87
78613;BME280;67933;51.060;3.638;2024-01-10T00:42:38;102993.91;;;-4.62;74.56
78613;BME280;67933;51.060;3.638;2024-01-10T00:45:04;102985.31;;;-4.61;73.85
78613;BME280;67933;51.060;3.638;2024-01-10T00:47:30;102996.63;;;-4.59;74.96
78613;BME280;67933;51.060;3.638;2024-01-10T00:49:55;102992.13;;;-4.63;74.31
78613;BME280;67933;51.060;3.638;2024-01-10T00:52:20;102994.72;;;-4.63;75.17
78613;BME280;67933;51.060;3.638;2024-01-10T00:54:46;102999.78;;;-4.66;75.45
78613;BME280;67933;51.060;3.638;2024-01-10T00:57:11;103010.16;;;-4.66;75.10
78613;BME280;67933;51.060;3.638;2024-01-10T00:59:36;103000.63;;;-4.67;75.60
78613;BME280;67933;51.060;3.638;2024-01-10T01:02:02;103003.78;;;-4.74;74.65
78613;BME280;67933;51.060;3.638;2024-01-10T01:04:27;102992.41;;;-4.78;76.41
78613;BME280;67933;51.060;3.638;2024-01-10T01:06:53;102993.31;;;-4.77;75.61
78613;BME280;67933;51.060;3.638;2024-01-10T01:09:19;102983.59;;;-4.83;76.37
78613;BME280;67933;51.060;3.638;2024-01-10T01:11:44;102984.34;;;-4.85;77.80
78613;BME280;67933;51.060;3.638;2024-01-10T01:14:10;102986.75;;;-4.90;78.26
78613;BME280;67933;51.060;3.638;2024-01-10T01:16:35;102989.16;;;-4.94;78.38
78613;BME280;67933;51.060;3.638;2024-01-10T01:19:00;102989.16;;;-4.94;78.01
78613;BME280;67933;51.060;3.638;2024-01-10T01:21:26;102991.75;;;-4.94;79.18
78613;BME280;67933;51.060;3.638;2024-01-10T01:23:51;102993.34;;;-4.98;78.88
78613;BME280;67933;51.060;3.638;2024-01-10T01:26:16;102986.00;;;-5.08;81.11
78613;BME280;67933;51.060;3.638;2024-01-10T01:28:42;102991.94;;;-5.11;80.84
78613;BME280;67933;51.060;3.638;2024-01-10T01:31:07;102993.47;;;-5.16;79.76
78613;BME280;67933;51.060;3.638;2024-01-10T01:33:33;102985.03;;;-5.12;80.63
78613;BME280;67933;51.060;3.638;2024-01-10T01:35:58;102984.19;;;-5.11;79.40
78613;BME280;67933;51.060;3.638;2024-01-10T01:38:24;102994.59;;;-5.09;79.55
78613;BME280;67933;51.060;3.638;2024-01-10T01:40:49;102990.19;;;-5.12;79.61
78613;BME280;67933;51.060;3.638;2024-01-10T01:43:23;102993.72;;;-5.10;79.63
78613;BME280;67933;51.060;3.638;2024-01-10T01:45:53;102992.06;;;-5.08;78.89
78613;BME280;67933;51.060;3.638;2024-01-10T01:48:21;102989.41;;;-5.09;79.68
78613;BME280;67933;51.060;3.638;2024-01-10T01:50:49;102995.47;;;-5.09;79.84
78613;BME280;67933;51.060;3.638;2024-01-10T01:53:16;102991.09;;;-5.11;79.71
78613;BME280;67933;51.060;3.638;2024-01-10T01:55:43;102994.41;;;-5.14;79.68
78613;BME280;67933;51.060;3.638;2024-01-10T01:58:10;102997.81;;;-5.15;79.73
78613;BME280;67933;51.060;3.638;2024-01-10T02:00:37;103001.28;;;-5.14;79.97
78613;BME280;67933;51.060;3.638;2024-01-10T02:03:03;102995.25;;;-5.15;78.58
78613;BME280;67933;51.060;3.638;2024-01-10T02:05:30;102998.31;;;-5.03;77.23
78613;BME280;67933;51.060;3.638;2024-01-10T02:07:55;102996.50;;;-5.05;77.91
78613;BME280;67933;51.060;3.638;2024-01-10T02:10:21;102994.72;;;-5.06;77.26
78613;BME280;67933;51.060;3.638;2024-01-10T02:12:47;102997.13;;;-5.11;78.65
78613;BME280;67933;51.060;3.638;2024-01-10T02:15:13;102990.94;;;-5.14;77.70
78613;BME280;67933;51.060;3.638;2024-01-10T02:17:39;102995.38;;;-5.12;77.35
78613;BME280;67933;51.060;3.638;2024-01-10T02:20:14;102994.41;;;-5.14;79.27
78613;BME280;67933;51.060;3.638;2024-01-10T02:22:43;102985.84;;;-5.13;78.59
78613;BME280;67933;51.060;3.638;2024-01-10T02:25:11;102991.03;;;-5.13;79.13
78613;BME280;67933;51.060;3.638;2024-01-10T02:27:37;102990.31;;;-5.09;78.92
78613;BME280;67933;51.060;3.638;2024-01-10T02:30:04;102987.41;;;-5.16;79.68
78613;BME280;67933;51.060;3.638;2024-01-10T02:32:30;102987.03;;;-5.25;79.76
78613;BME280;67933;51.060;3.638;2024-01-10T02:34:56;102983.50;;;-5.27;80.04
78613;BME280;67933;51.060;3.638;2024-01-10T02:37:21;102984.75;;;-5.18;79.51
78613;BME280;67933;51.060;3.638;2024-01-10T02:39:47;102979.56;;;-5.18;79.79
78613;BME280;67933;51.060;3.638;2024-01-10T02:42:12;102982.13;;;-5.19;78.39
78613;BME280;67933;51.060;3.638;2024-01-10T02:44:38;102979.47;;;-5.21;79.65
78613;BME280;67933;51.060;3.638;2024-01-10T02:47:04;102972.53;;;-5.22;79.44
78613;BME280;67933;51.060;3.638;2024-01-10T02:49:29;102978.59;;;-5.21;80.06
78613;BME280;67933;51.060;3.638;2024-01-10T02:51:55;102978.38;;;-5.26;80.51
78613;BME280;67933;51.060;3.638;2024-01-10T02:54:20;102974.97;;;-5.25;80.83
78613;BME280;67933;51.060;3.638;2024-01-10T02:56:46;102975.78;;;-5.26;80.72
78613;BME280;67933;51.060;3.638;2024-01-10T02:59:11;102976.56;;;-5.28;80.84
78613;BME280;67933;51.060;3.638;2024-01-10T03:01:36;102980.88;;;-5.29;79.98
78613;BME280;67933;51.060;3.638;2024-01-10T03:04:02;102974.06;;;-5.27;80.71
78613;BME280;67933;51.060;3.638;2024-01-10T03:06:27;102971.41;;;-5.28;79.91
78613;BME280;67933;51.060;3.638;2024-01-10T03:08:54;102963.13;;;-5.20;79.42
78613;BME280;67933;51.060;3.638;2024-01-10T03:11:20;102957.91;;;-5.21;79.24
78613;BME280;67933;51.060;3.638;2024-01-10T03:13:46;102962.03;;;-5.25;78.99
78613;BME280;67933;51.060;3.638;2024-01-10T03:16:12;102960.28;;;-5.26;78.83
78613;BME280;67933;51.060;3.638;2024-01-10T03:18:37;102952.41;;;-5.29;80.04
78613;BME280;67933;51.060;3.638;2024-01-10T03:21:02;102941.94;;;-5.32;80.27
78613;BME280;67933;51.060;3.638;2024-01-10T03:23:28;102949.59;;;-5.35;80.91
78613;BME280;67933;51.060;3.638;2024-01-10T03:25:53;102937.47;;;-5.36;81.88
78613;BME280;67933;51.060;3.638;2024-01-10T03:28:19;102936.59;;;-5.36;81.94
78613;BME280;67933;51.060;3.638;2024-01-10T03:30:44;102939.91;;;-5.39;82.41
78613;BME280;67933;51.060;3.638;2024-01-10T03:33:10;102933.69;;;-5.44;81.67
78613;BME280;67933;51.060;3.638;2024-01-10T03:35:36;102936.94;;;-5.48;83.63
78613;BME280;67933;51.060;3.638;2024-01-10T03:38:02;102932.34;;;-5.55;82.66
78613;BME280;67933;51.060;3.638;2024-01-10T03:40:27;102931.34;;;-5.59;82.78
78613;BME280;67933;51.060;3.638;2024-01-10T03:42:52;102927.75;;;-5.62;83.98
78613;BME280;67933;51.060;3.638;2024-01-10T03:45:18;102929.66;;;-5.58;84.01
78613;BME280;67933;51.060;3.638;2024-01-10T03:47:46;102927.88;;;-5.59;82.97
78613;BME280;67933;51.060;3.638;2024-01-10T03:50:16;102928.13;;;-5.53;83.29
78613;BME280;67933;51.060;3.638;2024-01-10T03:52:43;102923.09;;;-5.50;82.93
78613;BME280;67933;51.060;3.638;2024-01-10T03:55:08;102926.59;;;-5.48;81.32
78613;BME280;67933;51.060;3.638;2024-01-10T03:57:34;102927.69;;;-5.43;81.49
78613;BME280;67933;51.060;3.638;2024-01-10T03:59:59;102923.72;;;-5.35;80.43
78613;BME280;67933;51.060;3.638;2024-01-10T04:02:26;102921.25;;;-5.32;80.12
78613;BME280;67933;51.060;3.638;2024-01-10T04:04:51;102912.50;;;-5.35;79.74
78613;BME280;67933;51.060;3.638;2024-01-10T04:07:16;102913.31;;;-5.36;79.31
78613;BME280;67933;51.060;3.638;2024-01-10T04:09:42;102911.59;;;-5.36;79.29
78613;BME280;67933;51.060;3.638;2024-01-10T04:12:07;102908.06;;;-5.38;79.39
78613;BME280;67933;51.060;3.638;2024-01-10T04:14:32;102909.09;;;-5.34;78.80
78613;BME280;67933;51.060;3.638;2024-01-10T04:16:58;102904.53;;;-5.40;79.31
78613;BME280;67933;51.060;3.638;2024-01-10T04:19:24;102909.03;;;-5.36;79.04
78613;BME280;67933;51.060;3.638;2024-01-10T04:21:49;102908.06;;;-5.38;79.97
78613;BME280;67933;51.060;3.638;2024-01-10T04:24:14;102908.06;;;-5.38;80.20
78613;BME280;67933;51.060;3.638;2024-01-10T04:26:40;102908.06;;;-5.38;79.64
78613;BME280;67933;51.060;3.638;2024-01-10T04:29:05;102911.78;;;-5.31;78.31
78613;BME280;67933;51.060;3.638;2024-01-10T04:31:31;102906.59;;;-5.31;77.85
78613;BME280;67933;51.060;3.638;2024-01-10T04:33:56;102898.91;;;-5.30;78.53
78613;BME280;67933;51.060;3.638;2024-01-10T04:36:22;102902.38;;;-5.29;77.55
78613;BME280;67933;51.060;3.638;2024-01-10T04:38:47;102892.78;;;-5.32;77.20
78613;BME280;67933;51.060;3.638;2024-01-10T04:41:12;102891.97;;;-5.31;77.58
78613;BME280;67933;51.060;3.638;2024-01-10T04:43:38;102901.38;;;-5.33;78.66
78613;BME280;67933;51.060;3.638;2024-01-10T04:46:03;102888.50;;;-5.31;77.62
78613;BME280;67933;51.060;3.638;2024-01-10T04:48:29;102894.56;;;-5.31;77.95
78613;BME280;67933;51.060;3.638;2024-01-10T04:50:54;102897.06;;;-5.32;77.91
78613;BME280;67933;51.060;3.638;2024-01-10T04:53:20;102893.00;;;-5.27;76.66
78613;BME280;67933;51.060;3.638;2024-01-10T04:55:45;102887.81;;;-5.27;77.45
78613;BME280;67933;51.060;3.638;2024-01-10T04:58:11;102889.63;;;-5.25;76.01
78613;BME280;67933;51.060;3.638;2024-01-10T05:00:36;102890.56;;;-5.23;76.08
78613;BME280;67933;51.060;3.638;2024-01-10T05:03:02;102893.16;;;-5.23;75.52
78613;BME280;67933;51.060;3.638;2024-01-10T05:05:27;102887.25;;;-5.20;74.94
78613;BME280;67933;51.060;3.638;2024-01-10T05:07:52;102889.88;;;-5.19;75.59
78613;BME280;67933;51.060;3.638;2024-01-10T05:10:18;102893.28;;;-5.20;74.99
78613;BME280;67933;51.060;3.638;2024-01-10T05:12:43;102887.03;;;-5.25;76.00
78613;BME280;67933;51.060;3.638;2024-01-10T05:15:09;102888.81;;;-5.24;76.52
78613;BME280;67933;51.060;3.638;2024-01-10T05:17:34;102886.06;;;-5.28;76.84
78613;BME280;67933;51.060;3.638;2024-01-10T05:20:00;102889.38;;;-5.31;77.27
78613;BME280;67933;51.060;3.638;2024-01-10T05:22:26;102885.09;;;-5.30;76.80
78613;BME280;67933;51.060;3.638;2024-01-10T05:24:51;102881.75;;;-5.28;77.06
78613;BME280;67933;51.060;3.638;2024-01-10T05:27:17;102884.28;;;-5.29;77.52
78613;BME280;67933;51.060;3.638;2024-01-10T05:29:42;102882.66;;;-5.27;77.39
78613;BME280;67933;51.060;3.638;2024-01-10T05:32:08;102888.44;;;-5.33;78.15
78613;BME280;67933;51.060;3.638;2024-01-10T05:34:33;102887.53;;;-5.35;77.30
78613;BME280;67933;51.060;3.638;2024-01-10T05:36:59;102884.78;;;-5.38;77.90
78613;BME280;67933;51.060;3.638;2024-01-10T05:39:24;102884.72;;;-5.39;78.33
78613;BME280;67933;51.060;3.638;2024-01-10T05:41:49;102877.91;;;-5.37;77.23
78613;BME280;67933;51.060;3.638;2024-01-10T05:44:16;102878.00;;;-5.36;78.58
78613;BME280;67933;51.060;3.638;2024-01-10T05:46:42;102882.44;;;-5.32;78.72
78613;BME280;67933;51.060;3.638;2024-01-10T05:49:08;102869.28;;;-5.38;79.34
78613;BME280;67933;51.060;3.638;2024-01-10T05:51:34;102879.50;;;-5.41;79.25
78613;BME280;67933;51.060;3.638;2024-01-10T05:53:59;102878.59;;;-5.42;78.45
78613;BME280;67933;51.060;3.638;2024-01-10T05:56:24;102878.00;;;-5.36;79.43
78613;BME280;67933;51.060;3.638;2024-01-10T05:58:50;102878.00;;;-5.36;79.25
78613;BME280;67933;51.060;3.638;2024-01-10T06:01:17;102876.88;;;-5.43;80.29
78613;BME280;67933;51.060;3.638;2024-01-10T06:03:42;102878.56;;;-5.43;79.89
78613;BME280;67933;51.060;3.638;2024-01-10T06:06:07;102890.53;;;-5.45;78.89
78613;BME280;67933;51.060;3.638;2024-01-10T06:08:33;102883.59;;;-5.46;78.68
78613;BME280;67933;51.060;3.638;2024-01-10T06:10:58;102878.44;;;-5.46;79.46
78613;BME280;67933;51.060;3.638;2024-01-10T06:13:24;102886.31;;;-5.43;78.40
78613;BME280;67933;51.060;3.638;2024-01-10T06:15:49;102885.38;;;-5.45;78.65
78613;BME280;67933;51.060;3.638;2024-01-10T06:18:15;102885.50;;;-5.42;78.82
78613;BME280;67933;51.060;3.638;2024-01-10T06:20:41;102881.91;;;-5.46;78.77
78613;BME280;67933;51.060;3.638;2024-01-10T06:23:06;102885.13;;;-5.51;78.80
78613;BME280;67933;51.060;3.638;2024-01-10T06:25:32;102892.88;;;-5.51;78.58
78613;BME280;67933;51.060;3.638;2024-01-10T06:27:57;102896.41;;;-5.49;78.54
78613;BME280;67933;51.060;3.638;2024-01-10T06:30:22;102901.78;;;-5.45;78.53
78613;BME280;67933;51.060;3.638;2024-01-10T06:32:48;102887.16;;;-5.44;79.13
78613;BME280;67933;51.060;3.638;2024-01-10T06:35:13;102902.44;;;-5.49;78.91
78613;BME280;67933;51.060;3.638;2024-01-10T06:37:40;102883.47;;;-5.49;79.13
78613;BME280;67933;51.060;3.638;2024-01-10T06:40:06;102897.16;;;-5.52;80.29
78613;BME280;67933;51.060;3.638;2024-01-10T06:42:32;102898.75;;;-5.55;79.54
78613;BME280;67933;51.060;3.638;2024-01-10T06:44:57;102892.94;;;-5.50;79.00
78613;BME280;67933;51.060;3.638;2024-01-10T06:47:23;102892.09;;;-5.49;78.75
78613;BME280;67933;51.060;3.638;2024-01-10T06:49:48;102895.88;;;-5.40;79.17
78613;BME280;67933;51.060;3.638;2024-01-10T06:52:14;102897.47;;;-5.44;78.91
78613;BME280;67933;51.060;3.638;2024-01-10T06:54:39;102901.53;;;-5.51;78.36
78613;BME280;67933;51.060;3.638;2024-01-10T06:57:04;102894.66;;;-5.50;78.04
78613;BME280;67933;51.060;3.638;2024-01-10T06:59:30;102892.06;;;-5.50;78.80
78613;BME280;67933;51.060;3.638;2024-01-10T07:01:55;102889.59;;;-5.47;78.88
78613;BME280;67933;51.060;3.638;2024-01-10T07:04:26;102895.84;;;-5.42;78.23
78613;BME280;67933;51.060;3.638;2024-01-10T07:06:53;102896.78;;;-5.40;77.75
78613;BME280;67933;51.060;3.638;2024-01-10T07:09:18;102905.31;;;-5.43;77.40
78613;BME280;67933;51.060;3.638;2024-01-10T07:11:47;102889.66;;;-5.46;78.09
78613;BME280;67933;51.060;3.638;2024-01-10T07:14:15;102896.41;;;-5.49;77.92
78613;BME280;67933;51.060;3.638;2024-01-10T07:16:41;102893.56;;;-5.55;79.31
78613;BME280;67933;51.060;3.638;2024-01-10T07:19:10;102885.94;;;-5.52;78.96
78613;BME280;67933;51.060;3.638;2024-01-10T07:21:42;102890.31;;;-5.51;78.88
78613;BME280;67933;51.060;3.638;2024-01-10T07:24:08;102887.75;;;-5.50;78.00
78613;BME280;67933;51.060;3.638;2024-01-10T07:26:37;102890.31;;;-5.51;78.62
78613;BME280;67933;51.060;3.638;2024-01-10T07:29:03;102886.91;;;-5.50;79.40
78613;BME280;67933;51.060;3.638;2024-01-10T07:31:29;102891.06;;;-5.54;79.70
78613;BME280;67933;51.060;3.638;2024-01-10T07:33:56;102895.34;;;-5.54;79.85
78613;BME280;67933;51.060;3.638;2024-01-10T07:36:23;102903.16;;;-5.53;79.02
78613;BME280;67933;51.060;3.638;2024-01-10T07:38:49;102895.56;;;-5.48;79.83
78613;BME280;67933;51.060;3.638;2024-01-10T07:41:14;102892.94;;;-5.50;79.65
78613;BME280;67933;51.060;3.638;2024-01-10T07:43:39;102895.56;;;-5.48;80.13
78613;BME280;67933;51.060;3.638;2024-01-10T07:46:05;102902.34;;;-5.52;79.64
78613;BME280;67933;51.060;3.638;2024-01-10T07:48:30;102897.09;;;-5.53;79.34
78613;BME280;67933;51.060;3.638;2024-01-10T07:50:56;102897.28;;;-5.49;80.93
78613;BME280;67933;51.060;3.638;2024-01-10T07:53:22;102890.16;;;-5.54;81.68
78613;BME280;67933;51.060;3.638;2024-01-10T07:55:47;102901.56;;;-5.49;81.74
78613;BME280;67933;51.060;3.638;2024-01-10T07:58:12;102900.16;;;-5.41;78.92
78613;BME280;67933;51.060;3.638;2024-01-10T08:00:38;102896.09;;;-5.36;80.24
78613;BME280;67933;51.060;3.638;2024-01-10T08:03:04;102888.41;;;-5.34;81.33
78613;BME280;67933;51.060;3.638;2024-01-10T08:05:29;102894.44;;;-5.34;81.32
78613;BME280;67933;51.060;3.638;2024-01-10T08:07:55;102901.63;;;-5.27;81.04
78613;BME280;67933;51.060;3.638;2024-01-10T08:10:21;102905.41;;;-5.19;79.31
78613;BME280;67933;51.060;3.638;2024-01-10T08:12:47;102906.25;;;-5.18;80.24
78613;BME280;67933;51.060;3.638;2024-01-10T08:15:12;102904.88;;;-5.10;78.64
78613;BME280;67933;51.060;3.638;2024-01-10T08:17:39;102903.34;;;-5.05;79.53
78613;BME280;67933;51.060;3.638;2024-01-10T08:20:06;102897.41;;;-5.03;79.77
78613;BME280;67933;51.060;3.638;2024-01-10T08:22:32;102899.53;;;-4.92;78.62
78613;BME280;67933;51.060;3.638;2024-01-10T08:24:57;102920.81;;;-4.77;78.33
78613;BME280;67933;51.060;3.638;2024-01-10T08:27:23;102919.63;;;-4.63;77.09
78613;BME280;67933;51.060;3.638;2024-01-10T08:29:48;102918.63;;;-4.20;76.83
78613;BME280;67933;51.060;3.638;2024-01-10T08:32:13;102906.63;;;-3.93;73.57
78613;BME280;67933;51.060;3.638;2024-01-10T08:34:40;102900.44;;;-3.73;73.08
78613;BME280;67933;51.060;3.638;2024-01-10T08:37:05;102899.75;;;-3.93;73.05
78613;BME280;67933;51.060;3.638;2024-01-10T08:39:31;102907.44;;;-4.19;73.82
78613;BME280;67933;51.060;3.638;2024-01-10T08:41:57;102904.78;;;-4.21;73.51
78613;BME280;67933;51.060;3.638;2024-01-10T08:44:22;102912.44;;;-4.00;75.05
78613;BME280;67933;51.060;3.638;2024-01-10T08:46:48;102914.28;;;-3.20;71.57
78613;BME280;67933;51.060;3.638;2024-01-10T08:49:13;102905.84;;;-2.56;68.39
78613;BME280;67933;51.060;3.638;2024-01-10T08:51:39;102904.34;;;-2.18;66.53
78613;BME280;67933;51.060;3.638;2024-01-10T08:54:06;102897.47;;;-1.83;65.51
78613;BME280;67933;51.060;3.638;2024-01-10T08:56:31;102895.78;;;-1.47;63.87
78613;BME280;67933;51.060;3.638;2024-01-10T08:58:57;102900.88;;;-1.17;61.97
78613;BME280;67933;51.060;3.638;2024-01-10T09:01:22;102898.09;;;-0.87;61.42
78613;BME280;67933;51.060;3.638;2024-01-10T09:03:48;102905.53;;;-0.65;60.87
78613;BME280;67933;51.060;3.638;2024-01-10T09:06:14;102893.41;;;-0.63;60.00
78613;BME280;67933;51.060;3.638;2024-01-10T09:08:39;102902.44;;;-0.46;59.33
78613;BME280;67933;51.060;3.638;2024-01-10T09:11:05;102893.78;;;-0.45;58.42
78613;BME280;67933;51.060;3.638;2024-01-10T09:13:31;102900.50;;;-0.12;57.75
78613;BME280;67933;51.060;3.638;2024-01-10T09:15:56;102892.63;;;-0.17;56.69
78613;BME280;67933;51.060;3.638;2024-01-10T09:18:22;102900.69;;;-0.03;57.31
78613;BME280;67933;51.060;3.638;2024-01-10T09:20:47;102901.53;;;-0.04;56.81
78613;BME280;67933;51.060;3.638;2024-01-10T09:23:13;102907.34;;;0.28;55.40
78613;BME280;67933;51.060;3.638;2024-01-10T09:25:39;102910.16;;;0.38;55.32
78613;BME280;67933;51.060;3.638;2024-01-10T09:28:04;102915.44;;;0.43;56.16
78613;BME280;67933;51.060;3.638;2024-01-10T09:30:30;102904.19;;;0.46;54.66
78613;BME280;67933;51.060;3.638;2024-01-10T09:32:55;102906.31;;;0.68;54.53
78613;BME280;67933;51.060;3.638;2024-01-10T09:35:22;102900.31;;;0.75;54.09
78613;BME280;67933;51.060;3.638;2024-01-10T09:37:47;102895.47;;;0.99;54.42
78613;BME280;67933;51.060;3.638;2024-01-10T09:40:15;102900.81;;;1.07;53.19
78613;BME280;67933;51.060;3.638;2024-01-10T09:42:41;102898.09;;;0.99;53.99
78613;BME280;67933;51.060;3.638;2024-01-10T09:45:08;102900.91;;;0.57;54.42
78613;BME280;67933;51.060;3.638;2024-01-10T09:47:36;102903.00;;;-0.18;56.19
78613;BME280;67933;51.060;3.638;2024-01-10T09:50:04;102901.47;;;-0.51;56.47
78613;BME280;67933;51.060;3.638;2024-01-10T09:52:34;102905.34;;;-0.32;56.89
78613;BME280;67933;51.060;3.638;2024-01-10T09:55:01;102897.25;;;0.48;55.12
78613;BME280;67933;51.060;3.638;2024-01-10T09:57:26;102893.00;;;1.10;54.11
78613;BME280;67933;51.060;3.638;2024-01-10T09:59:53;102897.72;;;1.37;51.92
78613;BME280;67933;51.060;3.638;2024-01-10T10:02:20;102901.88;;;1.90;51.48
78613;BME280;67933;51.060;3.638;2024-01-10T10:05:04;102898.50;;;2.02;49.13
78613;BME280;67933;51.060;3.638;2024-01-10T10:07:46;102892.47;;;2.11;49.64
78613;BME280;67933;51.060;3.638;2024-01-10T10:10:11;102899.66;;;2.30;48.07
78613;BME280;67933;51.060;3.638;2024-01-10T10:12:47;102888.63;;;1.75;49.32
78613;BME280;67933;51.060;3.638;2024-01-10T10:15:17;102901.69;;;1.75;49.68
78613;BME280;67933;51.060;3.638;2024-01-10T10:17:45;102906.72;;;2.37;49.66
78613;BME280;67933;51.060;3.638;2024-01-10T10:20:21;102905.28;;;2.76;48.43
78613;BME280;67933;51.060;3.638;2024-01-10T10:23:08;102900.22;;;3.03;47.41
78613;BME280;67933;51.060;3.638;2024-01-10T10:25:45;102897.41;;;2.72;46.61
78613;BME280;67933;51.060;3.638;2024-01-10T10:28:11;102898.34;;;2.81;49.21
78613;BME280;67933;51.060;3.638;2024-01-10T10:30:36;102885.59;;;3.40;47.40
78613;BME280;67933;51.060;3.638;2024-01-10T10:33:03;102898.69;;;3.35;46.39
78613;BME280;67933;51.060;3.638;2024-01-10T10:35:28;102894.47;;;3.69;46.29
78613;BME280;67933;51.060;3.638;2024-01-10T10:37:54;102891.88;;;3.89;46.71
78613;BME280;67933;51.060;3.638;2024-01-10T10:40:20;102889.34;;;4.29;46.99
78613;BME280;67933;51.060;3.638;2024-01-10T10:42:48;102891.06;;;4.13;43.59
78613;BME280;67933;51.060;3.638;2024-01-10T10:45:18;102896.34;;;4.23;43.67
78613;BME280;67933;51.060;3.638;2024-01-10T10:47:45;102896.38;;;4.71;43.79
78613;BME280;67933;51.060;3.638;2024-01-10T10:50:23;102898.13;;;4.75;40.99
78613;BME280;67933;51.060;3.638;2024-01-10T10:52:50;102893.75;;;4.78;43.31
78613;BME280;67933;51.060;3.638;2024-01-10T10:55:20;102890.22;;;5.00;43.79
78613;BME280;67933;51.060;3.638;2024-01-10T10:57:47;102893.66;;;5.21;41.46
78613;BME280;67933;51.060;3.638;2024-01-10T11:00:14;102887.53;;;5.23;41.52
78613;BME280;67933;51.060;3.638;2024-01-10T11:02:41;102890.06;;;5.54;41.55
78613;BME280;67933;51.060;3.638;2024-01-10T11:05:07;102876.81;;;5.67;41.32
78613;BME280;67933;51.060;3.638;2024-01-10T11:07:36;102878.63;;;5.64;41.06
78613;BME280;67933;51.060;3.638;2024-01-10T11:10:04;102872.19;;;6.15;40.51
78613;BME280;67933;51.060;3.638;2024-01-10T11:15:42;102864.22;;;6.21;38.79
78613;BME280;67933;51.060;3.638;2024-01-10T11:18:47;102860.59;;;6.39;38.99
78613;BME280;67933;51.060;3.638;2024-01-10T11:21:37;102856.38;;;6.12;39.11
78613;BME280;67933;51.060;3.638;2024-01-10T11:24:08;102856.31;;;6.23;40.22
78613;BME280;67933;51.060;3.638;2024-01-10T11:26:37;102854.47;;;6.37;38.87
78613;BME280;67933;51.060;3.638;2024-01-10T11:29:02;102843.97;;;6.29;38.65
78613;BME280;67933;51.060;3.638;2024-01-10T11:31:30;102839.66;;;6.21;38.29
78613;BME280;67933;51.060;3.638;2024-01-10T11:34:00;102844.78;;;6.42;38.57
78613;BME280;67933;51.060;3.638;2024-01-10T11:36:26;102838.56;;;6.44;38.37
78613;BME280;67933;51.060;3.638;2024-01-10T11:41:32;102825.81;;;6.92;38.13
78613;BME280;67933;51.060;3.638;2024-01-10T11:46:47;102829.53;;;6.73;36.38
78613;BME280;67933;51.060;3.638;2024-01-10T11:49:15;102820.25;;;6.32;38.37
78613;BME280;67933;51.060;3.638;2024-01-10T11:51:45;102811.66;;;6.07;40.59
78613;BME280;67933;51.060;3.638;2024-01-10T11:54:11;102816.03;;;6.07;39.60
78613;BME280;67933;51.060;3.638;2024-01-10T11:56:40;102821.00;;;6.46;38.88
78613;BME280;67933;51.060;3.638;2024-01-10T11:59:10;102806.78;;;6.61;39.35
78613;BME280;67933;51.060;3.638;2024-01-10T12:01:40;102811.09;;;6.68;37.93
78613;BME280;67933;51.060;3.638;2024-01-10T12:04:06;102812.03;;;6.64;37.04
78613;BME280;67933;51.060;3.638;2024-01-10T12:06:34;102812.13;;;6.55;38.70
78613;BME280;67933;51.060;3.638;2024-01-10T12:09:00;102801.06;;;7.02;39.62
78613;BME280;67933;51.060;3.638;2024-01-10T12:11:33;102799.13;;;7.19;37.27
78613;BME280;67933;51.060;3.638;2024-01-10T12:13:58;102787.03;;;6.10;37.66
78613;BME280;67933;51.060;3.638;2024-01-10T12:16:24;102797.09;;;5.44;41.67
78613;BME280;67933;51.060;3.638;2024-01-10T12:18:49;102798.72;;;5.66;39.80
78613;BME280;67933;51.060;3.638;2024-01-10T12:21:16;102791.44;;;6.11;39.17
78613;BME280;67933;51.060;3.638;2024-01-10T12:23:43;102793.06;;;6.24;39.25
78613;BME280;67933;51.060;3.638;2024-01-10T12:26:10;102790.81;;;6.75;37.72
78613;BME280;67933;51.060;3.638;2024-01-10T12:28:39;102791.41;;;7.03;37.61
78613;BME280;67933;51.060;3.638;2024-01-10T12:31:05;102788.78;;;7.01;36.26
78613;BME280;67933;51.060;3.638;2024-01-10T12:33:32;102785.13;;;6.29;37.98
78613;BME280;67933;51.060;3.638;2024-01-10T12:36:08;102778.50;;;6.74;38.23
78613;BME280;67933;51.060;3.638;2024-01-10T12:38:35;102778.75;;;6.52;37.70
78613;BME280;67933;51.060;3.638;2024-01-10T12:41:01;102776.38;;;6.24;38.58
78613;BME280;67933;51.060;3.638;2024-01-10T12:43:27;102780.13;;;5.95;38.23
78613;BME280;67933;51.060;3.638;2024-01-10T12:46:03;102773.88;;;6.08;39.05
78613;BME280;67933;51.060;3.638;2024-01-10T12:48:28;102778.00;;;6.40;38.63
78613;BME280;67933;51.060;3.638;2024-01-10T12:50:54;102779.06;;;6.17;39.27
78613;BME280;67933;51.060;3.638;2024-01-10T12:53:20;102770.19;;;6.29;39.29
78613;BME280;67933;51.060;3.638;2024-01-10T12:55:46;102760.44;;;6.39;37.29
78613;BME280;67933;51.060;3.638;2024-01-10T12:58:12;102773.38;;;6.65;37.87